Terminal Aerodrome Forecast
Issued by NWS

Home | Current Version | Previous Version | Text Only | Print | Product List | Glossary On
Versions: 1 2 3 4 5 6 7 8 9 10 11 12 13 14 15
506
FTUS42 KMLB 241120
TAFLEE
TAF
KLEE 241120Z 2412/2512 17005KT P6SM SCT250
     FM241900 10008KT P6SM VCTS SCT045CB
      TEMPO 2420/2423 3SM TSRA BKN030CB
     FM242300 14008KT P6SM SCT050
     FM250100 15004KT P6SM SCT250=

USA.gov is the U.S. government's official web portal to all federal, state and local government web resources and services.